MSC Caracas — DGZN — position and weather

sailwx.info

Track history (hours):
 
Tides and Currents Weather Stations Pressure Air Temp Water Temp Dewpoint Dewpoint Depression Visibility Wind Speed Wind Dir Waves Ship Positions

MSC Caracas

Last reported at 2015-May-21 12:00 UTC. Time now 2015-May-30 14:38 UTC.
Position N 15°48' W 017°06'.
Warning: this ship's position is 9 days out of date.

Length 207.4 m; beam 29.8 m; draft 11.4 m.

Type: Ship (hazmat cat A). MMSI: 211283670.

Wind from 360 at 18 knots

Barometer 1015.0 mb
Air temperature 27.0 ° C
Visibility: greater than 2.2 NM
Dewpoint 19.8 ° C

Date/timePositionNaut miles runAvg speedWind from/ knotsBaromVisibWave heightAir tempDewpointWater temp
2015-May-21 12:00N 15°48' W 017°06'40913.0 360 / 181015.0 2.2 27.019.8
2015-May-20 04:33N 09°21' W 014°51'1510.0
2015-May-20 03:05N 09°21' W 014°36'610.1
2015-May-20 02:30N 09°21' W 014°30'1510.5
2015-May-20 01:06N 09°22' W 014°15'610.5
2015-May-20 00:33N 09°22' W 014°09'1110.1
2015-May-19 23:26N 09°21' W 013°58'910.0
2015-May-19 22:33N 09°22' W 013°49'8 8.5
2015-May-19 21:34N 09°29' W 013°44'2 1.7
2015-May-19 20:33N 09°31' W 013°43'0 0.0
2015-May-19 19:30N 09°31' W 013°43'0 0.0
2015-May-19 18:33N 09°31' W 013°43'0 0.0
2015-May-19 17:33N 09°31' W 013°43'0 0.0
2015-May-19 16:30N 09°31' W 013°43'0 0.0
2015-May-19 15:33N 09°31' W 013°43'0 0.0
2015-May-19 14:33N 09°31' W 013°43'0 0.0
2015-May-19 13:33N 09°31' W 013°43'0 0.0
2015-May-19 12:33N 09°31' W 013°43'0 0.0
2015-May-19 11:33N 09°31' W 013°43'0 0.0
2015-May-19 10:33N 09°31' W 013°43'0 0.0
2015-May-19 09:33N 09°31' W 013°43'0 0.0
2015-May-19 08:33N 09°31' W 013°43'0 0.4
2015-May-19 07:33N 09°30' W 013°44'8 7.7
2015-May-19 06:33N 09°23' W 013°47'1915.9
2015-May-19 05:23N 09°21' W 014°05'23913.7
2015-May-18 12:00N 11°30' W 017°30'11515.2 210 / 101015.0 5.4 27.022.8
2015-May-18 04:26N 13°24' W 017°46'16314.5
2015-May-17 17:12N 16°07' W 017°45'2514.9
2015-May-17 15:30N 16°32' W 017°45'1814.9
2015-May-17 14:17N 16°50' W 017°45'7215.2
2015-May-17 09:33N 18°02' W 017°45'6315.2
2015-May-17 05:23N 19°05' W 017°45'7815.5
2015-May-17 00:21N 20°23' W 017°45'1515.1
2015-May-16 23:22N 20°38' W 017°45'1415.0
2015-May-16 22:24N 20°52' W 017°45'2014.0
2015-May-16 21:00N 21°12' W 017°42'2415.0 030 / 181012.0 5.4 21.017.2
2015-May-16 19:25N 21°36' W 017°40'6015.4
2015-May-16 15:33N 22°32' W 017°22'5515.5
2015-May-16 12:00N 23°24' W 017°00'12012.1 030 / 181016.0 5.4 22.017.5
2015-May-16 02:04N 25°14' W 016°09'612.3
2015-May-16 01:33N 25°19' W 016°05'5512.0
2015-May-15 21:00N 26°00' W 015°24'8611.5 030 / 171011.0 5.4 21.516.1
2015-May-15 13:32N 27°09' W 014°27'1212.5
2015-May-15 12:33N 27°19' W 014°18'4212.5
2015-May-15 09:09N 27°52' W 013°49'4412.0
2015-May-15 05:27N 28°28' W 013°19'5112.2
2015-May-15 01:14N 29°10' W 012°45'1112.5
2015-May-15 00:20N 29°19' W 012°37'2312.9
2015-May-14 22:33N 29°38' W 012°22'1312.8
2015-May-14 21:33N 29°49' W 012°14'1412.4
2015-May-14 20:24N 29°60' W 012°04'1012.2
2015-May-14 19:33N 30°08' W 011°57'1611.9
2015-May-14 18:10N 30°22' W 011°46'3212.4
2015-May-14 15:33N 30°48' W 011°24'1212.2
2015-May-14 14:33N 30°58' W 011°16'7112.8
2015-May-14 09:00N 31°54' W 010°24'4312.4 020 / 121020.010.8 20.016.9
2015-May-14 05:33N 32°31' W 009°59'7512.0
2015-May-13 23:19N 33°32' W 009°07'1012.4
2015-May-13 22:29N 33°40' W 008°59'2612.2
2015-May-13 20:23N 33°57' W 008°37'3411.9
2015-May-13 17:33N 34°20' W 008°06'6311.9
2015-May-13 12:15N 35°02' W 007°10'912.2
2015-May-13 11:30N 35°09' W 007°02'1313.6
2015-May-13 10:33N 35°17' W 006°50'1413.9
2015-May-13 09:31N 35°27' W 006°37'2713.9
2015-May-13 07:33N 35°45' W 006°11'4113.6
2015-May-13 04:32N 36°01' W 005°25'4 0.1
2015-May-11 20:28N 36°03' W 005°20'  
Track history (hours):
 
Tides and Currents Weather Stations Pressure Air Temp Water Temp Dewpoint Dewpoint Depression Visibility Wind Speed Wind Dir Waves Ship Positions

MSC Caracas

Last reported at 2015-May-21 12:00 UTC. Time now 2015-May-30 14:38 UTC.
Position N 15°48' W 017°06'.
Warning: this ship's position is 9 days out of date.

Length 207.4 m; beam 29.8 m; draft 11.4 m.

Type: Ship (hazmat cat A). MMSI: 211283670.

Wind from 360 at 18 knots

Barometer 1015.0 mb
Air temperature 27.0 ° C
Visibility: greater than 2.2 NM
Dewpoint 19.8 ° C

Date/timePositionNaut miles runAvg speedWind from/ knotsBaromVisibWave heightAir tempDewpointWater temp
2015-May-21 12:00N 15°48' W 017°06'40913.0 360 / 181015.0 2.2 27.019.8
2015-May-20 04:33N 09°21' W 014°51'1510.0
2015-May-20 03:05N 09°21' W 014°36'610.1
2015-May-20 02:30N 09°21' W 014°30'1510.5
2015-May-20 01:06N 09°22' W 014°15'610.5
2015-May-20 00:33N 09°22' W 014°09'1110.1
2015-May-19 23:26N 09°21' W 013°58'910.0
2015-May-19 22:33N 09°22' W 013°49'8 8.5
2015-May-19 21:34N 09°29' W 013°44'2 1.7
2015-May-19 20:33N 09°31' W 013°43'0 0.0
2015-May-19 19:30N 09°31' W 013°43'0 0.0
2015-May-19 18:33N 09°31' W 013°43'0 0.0
2015-May-19 17:33N 09°31' W 013°43'0 0.0
2015-May-19 16:30N 09°31' W 013°43'0 0.0
2015-May-19 15:33N 09°31' W 013°43'0 0.0
2015-May-19 14:33N 09°31' W 013°43'0 0.0
2015-May-19 13:33N 09°31' W 013°43'0 0.0
2015-May-19 12:33N 09°31' W 013°43'0 0.0
2015-May-19 11:33N 09°31' W 013°43'0 0.0
2015-May-19 10:33N 09°31' W 013°43'0 0.0
2015-May-19 09:33N 09°31' W 013°43'0 0.0
2015-May-19 08:33N 09°31' W 013°43'0 0.4
2015-May-19 07:33N 09°30' W 013°44'8 7.7
2015-May-19 06:33N 09°23' W 013°47'1915.9
2015-May-19 05:23N 09°21' W 014°05'23913.7
2015-May-18 12:00N 11°30' W 017°30'11515.2 210 / 101015.0 5.4 27.022.8
2015-May-18 04:26N 13°24' W 017°46'16314.5
2015-May-17 17:12N 16°07' W 017°45'2514.9
2015-May-17 15:30N 16°32' W 017°45'1814.9
2015-May-17 14:17N 16°50' W 017°45'7215.2
2015-May-17 09:33N 18°02' W 017°45'6315.2
2015-May-17 05:23N 19°05' W 017°45'7815.5
2015-May-17 00:21N 20°23' W 017°45'1515.1
2015-May-16 23:22N 20°38' W 017°45'1415.0
2015-May-16 22:24N 20°52' W 017°45'2014.0
2015-May-16 21:00N 21°12' W 017°42'2415.0 030 / 181012.0 5.4 21.017.2
2015-May-16 19:25N 21°36' W 017°40'6015.4
2015-May-16 15:33N 22°32' W 017°22'5515.5
2015-May-16 12:00N 23°24' W 017°00'12012.1 030 / 181016.0 5.4 22.017.5
2015-May-16 02:04N 25°14' W 016°09'612.3
2015-May-16 01:33N 25°19' W 016°05'5512.0
2015-May-15 21:00N 26°00' W 015°24'8611.5 030 / 171011.0 5.4 21.516.1
2015-May-15 13:32N 27°09' W 014°27'1212.5
2015-May-15 12:33N 27°19' W 014°18'4212.5
2015-May-15 09:09N 27°52' W 013°49'4412.0
2015-May-15 05:27N 28°28' W 013°19'5112.2
2015-May-15 01:14N 29°10' W 012°45'1112.5
2015-May-15 00:20N 29°19' W 012°37'2312.9
2015-May-14 22:33N 29°38' W 012°22'1312.8
2015-May-14 21:33N 29°49' W 012°14'1412.4
2015-May-14 20:24N 29°60' W 012°04'1012.2
2015-May-14 19:33N 30°08' W 011°57'1611.9
2015-May-14 18:10N 30°22' W 011°46'3212.4
2015-May-14 15:33N 30°48' W 011°24'1212.2
2015-May-14 14:33N 30°58' W 011°16'7112.8
2015-May-14 09:00N 31°54' W 010°24'4312.4 020 / 121020.010.8 20.016.9
2015-May-14 05:33N 32°31' W 009°59'7512.0
2015-May-13 23:19N 33°32' W 009°07'1012.4
2015-May-13 22:29N 33°40' W 008°59'2612.2
2015-May-13 20:23N 33°57' W 008°37'3411.9
2015-May-13 17:33N 34°20' W 008°06'6311.9
2015-May-13 12:15N 35°02' W 007°10'912.2
2015-May-13 11:30N 35°09' W 007°02'1313.6
2015-May-13 10:33N 35°17' W 006°50'1413.9
2015-May-13 09:31N 35°27' W 006°37'2713.9
2015-May-13 07:33N 35°45' W 006°11'4113.6
2015-May-13 04:32N 36°01' W 005°25'4 0.1
2015-May-11 20:28N 36°03' W 005°20'  

Dump ship's entire track history